HRGA4: Little River, Horatio, AR

                                SHEF ID:       HRGA4     Little River near Horatio, AR
STATION TYPE: Stream Gauge
Regulating: Stage = 21.50, Flow = 17539

PRECIP STAGE RIV-FLOW BAT-LOAD
in ft cfs volt
Ccp-Rev Ccp-Rev Ccp-Rev Ccp-Rev
(America/Chicago)
05/02 00:00 0.00 9.52 3818 12.55
05/02 01:00 0.00 9.42 3729 12.53
05/02 02:00 0.00 9.32 3641 12.50
05/02 03:00 0.00 9.21 3545 12.49
05/02 04:00 0.00 9.11 3458 12.46
05/02 05:00 0.00 9.01 3372 12.43
05/02 06:00 0.00 8.91 3286 12.40
05/02 07:00 0.00 8.82 3210 12.40
05/02 08:00 0.00 8.73 3134 12.42
05/02 09:00 0.00 8.63 3051 12.53
05/02 10:00 0.00 8.55 2984 12.65
05/02 11:00 0.00 8.46 2910 12.94
05/02 12:00 0.00 8.39 2853 13.36
05/02 13:00 0.00 8.30 2780 13.17
05/02 14:00 0.00 8.25 2740 13.03
05/02 15:00 0.00 8.16 2668 12.94
05/02 16:00 0.00 8.08 2604 12.90
05/02 17:00 0.00 8.00 2541 12.87
05/02 18:00 0.00 7.92 2479 12.84
05/02 19:00 0.00 7.83 2409 12.82
05/02 20:00 0.00 7.73 2332 12.80
05/02 21:00 0.00 7.68 2294 12.67
05/02 22:00 0.00 7.60 2234 12.61
05/02 23:00 0.00 7.53 ---- 12.58
Data processed at Sun 03May2026 04:10 GMT

NOTICE: If you are parsing this page

Please convert to using our Data API. Starting early 2026 we will be migrating to: https://water.usace.army.mil with modern pages rendered in JavaScript. When this migration completes you will no longer be able to scrape this page! CWMSDataAPI (CDA)

Timeseries IDs (TSIDs)

TSIDs used from left to right in the data table
HORA.Precip-Inc.Total.1Hour.1Hour.Ccp-Rev
HORA.Stage.Inst.1Hour.0.Ccp-Rev
HORA.Flow.Inst.1Hour.0.Ccp-Rev
HORA.Volt-Battery Load.Inst.1Hour.0.Ccp-Rev

                            

All information presented herein is the property of the government of the United States of America and may be revised or deleted at any time without prior notice. Dissemination of this information without the expressed written consent of the Public Affairs Office, Tulsa District U.S. Army Corps of Engineers is strictly prohibited. These data are gathered electronically and, as presented, have NOT undergone any form of quality control. These data are NOT guaranteed to be valid or correct.